createdAt,value
2023-10-09T00:01:17.540Z,30.15
2023-10-09T00:03:52.484Z,30.09
2023-10-09T00:06:39.044Z,30.17
2023-10-09T00:09:36.122Z,30.18
2023-10-09T00:12:12.405Z,30.15
2023-10-09T00:14:43.047Z,30.20
2023-10-09T00:17:13.645Z,30.21
2023-10-09T00:19:45.617Z,30.19
2023-10-09T00:22:25.745Z,30.22
2023-10-09T00:25:17.090Z,30.11
2023-10-09T00:27:50.540Z,30.19
2023-10-09T00:30:23.825Z,30.19
2023-10-09T00:33:03.428Z,30.16
2023-10-09T00:35:59.868Z,30.16
2023-10-09T00:38:35.927Z,30.15
2023-10-09T00:41:12.870Z,30.09
2023-10-09T00:43:54.575Z,30.18
2023-10-09T00:46:25.709Z,30.08
2023-10-09T00:49:05.204Z,30.19
2023-10-09T00:51:38.360Z,30.24
2023-10-09T00:54:16.663Z,29.98
2023-10-09T00:56:54.269Z,30.30
2023-10-09T00:59:26.924Z,30.34
2023-10-09T01:02:09.926Z,30.32
2023-10-09T01:04:45.414Z,30.34
2023-10-09T01:07:23.222Z,30.37
2023-10-09T01:09:56.686Z,30.38
2023-10-09T01:12:31.050Z,30.43
2023-10-09T01:15:02.054Z,30.45
2023-10-09T01:17:39.320Z,30.46
2023-10-09T01:20:18.820Z,30.41
2023-10-09T01:22:52.812Z,30.49
2023-10-09T01:25:23.792Z,30.41
2023-10-09T01:27:54.933Z,30.55
2023-10-09T01:30:25.783Z,30.56
2023-10-09T01:32:59.740Z,30.58
2023-10-09T01:35:34.701Z,30.52
2023-10-09T01:38:12.493Z,30.59
2023-10-09T01:40:45.328Z,30.63
2023-10-09T01:43:21.197Z,30.64
2023-10-09T01:45:54.213Z,30.66
2023-10-09T01:48:26.719Z,30.70
2023-10-09T01:50:57.398Z,30.67
2023-10-09T01:53:32.133Z,30.75
2023-10-09T01:56:16.954Z,30.69
2023-10-09T01:58:49.428Z,30.68
2023-10-09T02:01:20.155Z,30.79
2023-10-09T02:03:54.172Z,30.81
2023-10-09T02:06:28.398Z,30.78
2023-10-09T02:08:59.050Z,30.84
2023-10-09T02:11:38.774Z,30.88
2023-10-09T02:14:21.491Z,30.89
2023-10-09T02:17:04.781Z,30.85
2023-10-09T02:19:38.324Z,30.89
2023-10-09T02:22:14.804Z,30.96
2023-10-09T02:25:00.080Z,30.63
2023-10-09T02:28:08.151Z,30.88
2023-10-09T02:30:39.563Z,30.90
2023-10-09T02:33:11.421Z,30.90
2023-10-09T02:35:44.872Z,31.03
2023-10-09T02:38:16.795Z,31.04
2023-10-09T02:41:03.679Z,31.09
2023-10-09T02:43:57.150Z,31.09
2023-10-09T02:46:35.293Z,31.13
2023-10-09T02:49:06.163Z,31.15
2023-10-09T02:51:43.360Z,31.12
2023-10-09T02:54:25.889Z,31.22
2023-10-09T02:57:07.663Z,31.23
2023-10-09T02:59:40.782Z,31.25
2023-10-09T03:02:11.343Z,31.14
2023-10-09T03:04:43.754Z,31.30
2023-10-09T03:07:15.911Z,31.29
2023-10-09T03:09:46.465Z,31.25
2023-10-09T03:12:20.977Z,31.36
2023-10-09T03:14:51.446Z,31.39
2023-10-09T03:17:21.771Z,31.41
2023-10-09T03:19:52.928Z,31.07
2023-10-09T03:22:23.690Z,31.45
2023-10-09T03:24:55.099Z,31.48
2023-10-09T03:27:25.760Z,31.37
2023-10-09T03:29:56.349Z,31.53
2023-10-09T03:32:26.897Z,31.54
2023-10-09T03:34:57.650Z,31.57
2023-10-09T03:37:37.316Z,31.48
2023-10-09T03:40:09.933Z,31.61
2023-10-09T03:42:44.279Z,31.62
2023-10-09T03:45:20.367Z,31.68
2023-10-09T03:47:51.065Z,31.69
2023-10-09T03:50:37.716Z,31.70
2023-10-09T03:53:14.195Z,31.68
2023-10-09T03:55:44.720Z,31.75
2023-10-09T03:58:16.509Z,31.77
2023-10-09T04:00:51.624Z,31.80
2023-10-09T04:03:22.833Z,31.76
2023-10-09T04:05:55.704Z,31.81
2023-10-09T04:08:32.390Z,31.86
2023-10-09T04:11:06.333Z,31.87
2023-10-09T04:13:37.156Z,31.89
2023-10-09T04:16:33.635Z,31.91
2023-10-09T04:19:13.794Z,31.82
2023-10-09T04:21:44.483Z,31.93
2023-10-09T04:24:15.251Z,31.89
2023-10-09T04:26:47.203Z,31.58
2023-10-09T04:29:39.668Z,31.96
2023-10-09T04:32:10.351Z,31.98
2023-10-09T04:34:50.483Z,32.02
2023-10-09T04:37:38.888Z,32.04
2023-10-09T04:40:17.178Z,31.78
2023-10-09T04:43:00.414Z,31.97
2023-10-09T04:45:46.072Z,32.10
2023-10-09T04:48:34.820Z,32.10
2023-10-09T04:51:24.322Z,32.13
2023-10-09T04:54:14.820Z,31.82
2023-10-09T04:56:54.345Z,32.10
2023-10-09T04:59:28.159Z,32.12
2023-10-09T05:02:01.721Z,32.18
2023-10-09T05:04:45.558Z,32.19
2023-10-09T05:07:25.485Z,32.25
2023-10-09T05:10:06.677Z,32.26
2023-10-09T05:12:43.396Z,32.25
2023-10-09T05:15:15.623Z,32.20
2023-10-09T05:17:57.631Z,32.25
2023-10-09T05:20:28.507Z,32.31
2023-10-09T05:23:09.973Z,32.34
2023-10-09T05:25:55.635Z,32.30
2023-10-09T05:28:50.664Z,32.35
2023-10-09T05:31:39.461Z,32.38
2023-10-09T05:34:10.182Z,32.29
2023-10-09T05:36:40.780Z,32.42
2023-10-09T05:39:20.958Z,32.41
2023-10-09T05:41:54.905Z,32.28
2023-10-09T05:44:51.794Z,32.47
2023-10-09T05:47:33.592Z,32.48
2023-10-09T05:50:24.304Z,32.50
2023-10-09T05:52:56.668Z,32.52
2023-10-09T05:55:46.942Z,32.45
2023-10-09T05:58:35.883Z,32.57
2023-10-09T06:01:09.159Z,32.52
2023-10-09T06:03:56.143Z,32.63
2023-10-09T06:06:35.794Z,32.65
2023-10-09T06:09:16.900Z,32.67
2023-10-09T06:11:51.962Z,32.66
2023-10-09T06:14:33.389Z,32.72
2023-10-09T06:17:26.910Z,32.69
2023-10-09T06:20:22.897Z,32.69
2023-10-09T06:22:59.012Z,32.73
2023-10-09T06:25:34.915Z,32.78
2023-10-09T06:28:05.702Z,32.79
2023-10-09T06:30:38.242Z,32.56
2023-10-09T06:33:31.744Z,32.89
2023-10-09T06:36:10.679Z,32.93
2023-10-09T06:39:03.906Z,32.93
2023-10-09T06:41:39.787Z,33.00
2023-10-09T06:44:24.931Z,32.98
2023-10-09T06:46:59.929Z,32.97
2023-10-09T06:49:35.591Z,33.02
2023-10-09T06:52:29.474Z,33.11
2023-10-09T06:55:11.317Z,33.16
2023-10-09T06:57:51.376Z,33.19
2023-10-09T07:00:42.999Z,33.21
2023-10-09T07:03:13.688Z,33.22
2023-10-09T07:06:04.336Z,33.32
2023-10-09T07:08:39.285Z,33.35
2023-10-09T07:11:45.339Z,33.41
2023-10-09T07:14:32.526Z,33.38
2023-10-09T07:17:24.018Z,33.18
2023-10-09T07:19:55.992Z,33.31
2023-10-09T07:22:31.664Z,33.40
2023-10-09T07:25:16.712Z,33.64
2023-10-09T07:27:47.263Z,33.70
2023-10-09T07:30:32.100Z,33.63
2023-10-09T07:33:14.817Z,33.81
2023-10-09T07:35:50.312Z,33.54
2023-10-09T07:38:47.201Z,33.58
2023-10-09T07:41:18.136Z,33.98
2023-10-09T07:43:49.395Z,33.97
2023-10-09T07:46:35.827Z,34.05
2023-10-09T07:49:11.546Z,34.12
2023-10-09T07:51:45.973Z,34.17
2023-10-09T07:54:34.163Z,34.21
2023-10-09T07:57:24.938Z,34.24
2023-10-09T08:00:03.256Z,34.25
2023-10-09T08:02:42.190Z,34.32
2023-10-09T08:05:21.779Z,34.42
2023-10-09T08:08:16.774Z,34.43
2023-10-09T08:11:15.478Z,34.53
2023-10-09T08:13:52.077Z,34.59
2023-10-09T08:16:27.902Z,34.64
2023-10-09T08:18:59.450Z,34.70
2023-10-09T08:21:46.311Z,34.75
2023-10-09T08:24:34.971Z,34.79
2023-10-09T08:27:23.799Z,34.87
2023-10-09T08:30:14.312Z,34.90
2023-10-09T08:35:35.363Z,34.92
2023-10-09T08:38:12.757Z,35.07
2023-10-09T08:40:45.255Z,35.10
2023-10-09T08:43:24.069Z,35.06
2023-10-09T08:46:05.431Z,34.78
2023-10-09T08:48:39.745Z,34.68
2023-10-09T08:51:12.937Z,34.62
2023-10-09T08:53:45.482Z,34.63
2023-10-09T08:56:26.657Z,34.74
2023-10-09T08:58:59.450Z,34.73
2023-10-09T09:01:34.202Z,34.74
2023-10-09T09:04:05.090Z,34.78
2023-10-09T09:06:43.258Z,34.63
2023-10-09T09:09:18.172Z,34.77
2023-10-09T09:11:51.280Z,34.82
2023-10-09T09:14:22.160Z,34.86
2023-10-09T09:16:54.359Z,34.79
2023-10-09T09:19:34.956Z,34.49
2023-10-09T09:22:14.927Z,34.82
2023-10-09T09:25:05.395Z,34.35
2023-10-09T09:27:57.788Z,34.78
2023-10-09T09:30:40.104Z,34.94
2023-10-09T09:33:44.536Z,34.65
2023-10-09T09:36:15.144Z,34.92
2023-10-09T09:38:51.970Z,34.89
2023-10-09T09:41:28.862Z,34.89
2023-10-09T09:44:03.623Z,34.62
2023-10-09T09:46:39.436Z,34.77
2023-10-09T09:49:18.826Z,34.79
2023-10-09T09:51:50.284Z,34.85
2023-10-09T09:54:26.396Z,34.83
2023-10-09T09:57:01.430Z,34.51
2023-10-09T09:59:37.575Z,34.74
2023-10-09T10:02:10.512Z,34.75
2023-10-09T10:04:45.075Z,34.85
2023-10-09T10:07:18.470Z,34.82
2023-10-09T10:09:51.105Z,34.78
2023-10-09T10:12:49.335Z,34.69
2023-10-09T10:15:19.874Z,34.74
2023-10-09T10:18:21.481Z,34.62
2023-10-09T10:21:34.427Z,34.56
2023-10-09T10:24:08.689Z,34.70
2023-10-09T10:26:39.490Z,34.76
2023-10-09T10:29:28.619Z,34.30
2023-10-09T10:32:03.335Z,34.37
2023-10-09T10:35:08.688Z,34.54
2023-10-09T10:38:02.804Z,34.54
2023-10-09T10:40:48.666Z,34.53
2023-10-09T10:43:36.418Z,34.60
2023-10-09T10:46:17.789Z,34.22
2023-10-09T10:48:51.345Z,34.43
2023-10-09T10:51:24.168Z,34.51
2023-10-09T10:53:59.700Z,34.41
2023-10-09T10:56:39.059Z,34.34
2023-10-09T10:59:09.814Z,34.32
2023-10-09T11:02:00.397Z,34.49
2023-10-09T11:04:34.840Z,34.46
2023-10-09T11:07:12.133Z,34.36
2023-10-09T11:10:01.279Z,34.19
2023-10-09T11:12:47.022Z,34.38
2023-10-09T11:15:23.863Z,34.40
2023-10-09T11:18:27.345Z,34.19
2023-10-09T11:21:06.724Z,34.31
2023-10-09T11:23:37.676Z,34.34
2023-10-09T11:26:30.308Z,33.62
2023-10-09T11:29:21.129Z,34.01
2023-10-09T11:32:07.363Z,34.06
2023-10-09T11:34:47.537Z,34.10
2023-10-09T11:37:20.886Z,34.16
2023-10-09T11:39:57.875Z,34.16
2023-10-09T11:42:38.980Z,34.09
2023-10-09T11:45:25.457Z,34.03
2023-10-09T11:48:01.154Z,34.05
2023-10-09T11:51:18.715Z,33.92
2023-10-09T11:53:52.003Z,33.96
2023-10-09T11:56:29.510Z,33.87
2023-10-09T11:59:01.077Z,33.84
2023-10-09T12:01:37.594Z,33.65
2023-10-09T12:04:11.611Z,33.86
2023-10-09T12:06:44.748Z,33.71
2023-10-09T12:09:19.061Z,33.63
2023-10-09T12:12:03.653Z,33.55
2023-10-09T12:14:35.882Z,33.53
2023-10-09T12:17:10.818Z,33.12
2023-10-09T12:19:44.750Z,33.47
2023-10-09T12:22:18.378Z,33.37
2023-10-09T12:24:49.184Z,33.42
2023-10-09T12:27:22.467Z,33.29
2023-10-09T12:29:52.972Z,33.32
2023-10-09T12:32:23.548Z,33.19
2023-10-09T12:34:53.956Z,33.24
2023-10-09T12:37:24.695Z,33.22
2023-10-09T12:39:58.147Z,33.21
2023-10-09T12:42:30.417Z,33.18
2023-10-09T12:45:03.890Z,32.83
2023-10-09T12:47:35.256Z,33.07
2023-10-09T12:50:15.814Z,33.07
2023-10-09T12:52:46.480Z,32.96
2023-10-09T12:55:21.869Z,33.01
2023-10-09T12:57:53.889Z,32.91
2023-10-09T13:00:27.898Z,32.98
2023-10-09T13:02:58.575Z,32.96
2023-10-09T13:05:29.432Z,32.93
2023-10-09T13:08:00.284Z,32.78
2023-10-09T13:10:33.670Z,32.90
2023-10-09T13:13:08.680Z,32.85
2023-10-09T13:15:44.900Z,32.75
2023-10-09T13:18:17.090Z,32.75
2023-10-09T13:20:47.795Z,32.80
2023-10-09T13:23:18.593Z,32.79
2023-10-09T13:25:52.071Z,32.76
2023-10-09T13:28:23.028Z,32.78
2023-10-09T13:30:53.744Z,32.75
2023-10-09T13:33:24.838Z,32.72
2023-10-09T13:35:55.443Z,32.72
2023-10-09T13:38:27.312Z,32.71
2023-10-09T13:41:06.479Z,32.64
2023-10-09T13:43:37.178Z,32.70
2023-10-09T13:46:07.720Z,32.67
2023-10-09T13:48:43.245Z,32.75
2023-10-09T13:51:21.256Z,32.35
2023-10-09T13:53:52.394Z,32.75
2023-10-09T13:56:29.394Z,32.76
2023-10-09T13:59:02.829Z,32.65
2023-10-09T14:01:34.566Z,32.52
2023-10-09T14:04:08.449Z,32.19
2023-10-09T14:06:39.419Z,32.31
2023-10-09T14:09:11.453Z,32.11
2023-10-09T14:11:46.304Z,32.12
2023-10-09T14:14:18.659Z,32.02
2023-10-09T14:16:49.511Z,31.73
2023-10-09T14:19:23.342Z,31.93
2023-10-09T14:21:56.223Z,31.88
2023-10-09T14:24:35.154Z,31.85
2023-10-09T14:27:06.521Z,31.81
2023-10-09T14:29:39.952Z,31.52
2023-10-09T14:32:15.232Z,31.60
2023-10-09T14:34:52.665Z,31.67
2023-10-09T14:37:25.378Z,31.66
2023-10-09T14:39:57.595Z,31.50
2023-10-09T14:42:29.988Z,31.52
2023-10-09T14:45:01.022Z,31.45
2023-10-09T14:47:33.404Z,31.41
2023-10-09T14:50:10.524Z,31.39
2023-10-09T14:52:41.258Z,31.39
2023-10-09T14:55:12.986Z,31.19
2023-10-09T14:57:44.507Z,31.29
2023-10-09T15:00:16.997Z,31.35
2023-10-09T15:02:47.506Z,31.15
2023-10-09T15:05:18.395Z,31.28
2023-10-09T15:07:49.014Z,31.25
2023-10-09T15:10:20.464Z,31.22
2023-10-09T15:12:51.902Z,31.20
2023-10-09T15:15:27.863Z,31.15
2023-10-09T15:17:58.443Z,31.19
2023-10-09T15:20:29.391Z,31.04
2023-10-09T15:23:00.245Z,30.80
2023-10-09T15:25:30.670Z,31.12
2023-10-09T15:28:01.499Z,31.06
2023-10-09T15:30:33.769Z,31.05
2023-10-09T15:33:04.445Z,31.12
2023-10-09T15:35:37.833Z,31.11
2023-10-09T15:38:08.451Z,31.11
2023-10-09T15:40:44.123Z,31.09
2023-10-09T15:43:15.654Z,31.39
2023-10-09T15:45:52.844Z,31.46
2023-10-09T15:48:23.619Z,31.49
2023-10-09T15:50:56.283Z,31.56
2023-10-09T15:53:27.184Z,31.59
2023-10-09T15:55:59.572Z,31.43
2023-10-09T15:58:31.309Z,31.61
2023-10-09T16:01:05.036Z,31.42
2023-10-09T16:03:36.964Z,31.66
2023-10-09T16:06:07.572Z,31.69
2023-10-09T16:08:39.092Z,31.71
2023-10-09T16:11:10.133Z,31.74
2023-10-09T16:13:41.708Z,31.73
2023-10-09T16:16:12.217Z,31.72
2023-10-09T16:18:43.311Z,31.64
2023-10-09T16:21:14.552Z,31.67
2023-10-09T16:23:45.117Z,31.66
2023-10-09T16:26:15.934Z,31.62
2023-10-09T16:28:47.159Z,31.64
2023-10-09T16:31:21.034Z,31.51
2023-10-09T16:33:51.558Z,31.61
2023-10-09T16:36:23.382Z,31.58
2023-10-09T16:38:54.638Z,31.54
2023-10-09T16:41:28.132Z,31.55
2023-10-09T16:44:01.752Z,31.51
2023-10-09T16:46:32.366Z,31.50
2023-10-09T16:49:06.424Z,31.52
2023-10-09T16:51:37.211Z,31.45
2023-10-09T16:54:07.700Z,31.42
2023-10-09T16:56:38.628Z,31.40
2023-10-09T16:59:15.286Z,31.44
2023-10-09T17:01:49.722Z,31.43
2023-10-09T17:04:22.254Z,31.40
2023-10-09T17:06:54.592Z,31.11
2023-10-09T17:09:26.634Z,31.36
2023-10-09T17:11:59.921Z,31.32
2023-10-09T17:14:30.784Z,31.09
2023-10-09T17:17:01.276Z,31.28
2023-10-09T17:19:32.005Z,31.20
2023-10-09T17:22:12.981Z,31.27
2023-10-09T17:24:45.629Z,31.15
2023-10-09T17:27:19.891Z,31.23
2023-10-09T17:29:50.673Z,31.22
2023-10-09T17:32:21.304Z,31.12
2023-10-09T17:34:51.554Z,31.20
2023-10-09T17:37:25.311Z,31.16
2023-10-09T17:39:55.853Z,31.16
2023-10-09T17:42:26.670Z,31.12
2023-10-09T17:44:57.701Z,31.12
2023-10-09T17:47:28.620Z,31.04
2023-10-09T17:50:00.857Z,31.07
2023-10-09T17:52:31.536Z,31.06
2023-10-09T17:55:08.659Z,31.06
2023-10-09T17:57:43.446Z,30.85
2023-10-09T18:00:27.775Z,31.02
2023-10-09T18:02:58.893Z,31.03
2023-10-09T18:05:45.006Z,31.01
2023-10-09T18:08:27.669Z,31.00
2023-10-09T18:11:00.206Z,30.99
2023-10-09T18:13:30.989Z,30.90
2023-10-09T18:16:18.831Z,30.92
2023-10-09T18:18:50.908Z,30.86
2023-10-09T18:21:21.901Z,30.94
2023-10-09T18:23:52.585Z,30.92
2023-10-09T18:26:25.966Z,30.91
2023-10-09T18:28:56.583Z,30.88
2023-10-09T18:31:28.829Z,30.88
2023-10-09T18:34:00.396Z,30.88
2023-10-09T18:36:33.392Z,30.85
2023-10-09T18:39:04.710Z,30.87
2023-10-09T18:41:35.728Z,30.81
2023-10-09T18:44:11.744Z,30.81
2023-10-09T18:46:42.546Z,30.70
2023-10-09T18:49:14.332Z,30.80
2023-10-09T18:51:46.545Z,30.79
2023-10-09T18:54:16.644Z,30.45
2023-10-09T18:56:46.881Z,30.70
2023-10-09T18:59:17.737Z,30.69
2023-10-09T19:01:49.523Z,30.72
2023-10-09T19:04:20.652Z,30.73
2023-10-09T19:06:53.069Z,30.72
2023-10-09T19:09:24.890Z,30.70
2023-10-09T19:11:59.152Z,30.36
2023-10-09T19:14:31.132Z,30.42
2023-10-09T19:17:02.110Z,30.31
2023-10-09T19:19:32.777Z,30.62
2023-10-09T19:22:03.092Z,30.53
2023-10-09T19:24:34.002Z,30.65
2023-10-09T19:27:04.486Z,30.60
2023-10-09T19:29:34.892Z,30.55
2023-10-09T19:32:05.710Z,30.62
2023-10-09T19:34:36.923Z,30.58
2023-10-09T19:37:32.194Z,30.59
2023-10-09T19:40:09.963Z,30.48
2023-10-09T19:42:41.186Z,30.58
2023-10-09T19:45:15.542Z,30.56
2023-10-09T19:47:46.123Z,30.53
2023-10-09T19:50:16.785Z,30.56
2023-10-09T19:52:47.821Z,30.55
2023-10-09T19:55:23.640Z,30.49
2023-10-09T19:57:54.050Z,30.53
2023-10-09T20:00:24.485Z,30.54
2023-10-09T20:02:59.943Z,30.40
2023-10-09T20:05:31.201Z,30.49
2023-10-09T20:08:02.144Z,30.49
2023-10-09T20:10:33.078Z,30.47
2023-10-09T20:13:06.014Z,30.49
2023-10-09T20:15:36.566Z,30.48
2023-10-09T20:18:09.307Z,30.43
2023-10-09T20:20:40.805Z,30.46
2023-10-09T20:23:11.257Z,30.38
2023-10-09T20:25:41.738Z,30.42
2023-10-09T20:28:12.744Z,30.41
2023-10-09T20:30:43.135Z,30.43
2023-10-09T20:33:13.397Z,30.39
2023-10-09T20:35:54.164Z,30.30
2023-10-09T20:38:30.198Z,30.16
2023-10-09T20:41:02.993Z,30.34
2023-10-09T20:43:36.142Z,30.33
2023-10-09T20:46:12.246Z,30.34
2023-10-09T20:48:48.392Z,30.34
2023-10-09T20:51:20.750Z,30.31
2023-10-09T20:53:52.858Z,30.33
2023-10-09T20:56:26.220Z,30.31
2023-10-09T20:58:58.059Z,30.30
2023-10-09T21:01:29.073Z,29.91
2023-10-09T21:03:59.929Z,30.24
2023-10-09T21:06:31.297Z,30.21
2023-10-09T21:09:02.107Z,30.26
2023-10-09T21:11:33.463Z,30.27
2023-10-09T21:14:04.412Z,30.14
2023-10-09T21:16:35.410Z,30.25
2023-10-09T21:19:07.071Z,30.10
2023-10-09T21:21:39.478Z,30.22
2023-10-09T21:24:11.421Z,30.17
2023-10-09T21:26:42.232Z,30.21
2023-10-09T21:29:14.141Z,30.21
2023-10-09T21:31:45.384Z,30.22
2023-10-09T21:34:16.845Z,30.19
2023-10-09T21:36:48.425Z,30.15
2023-10-09T21:39:20.069Z,30.15
2023-10-09T21:41:50.885Z,30.10
2023-10-09T21:44:21.621Z,30.16
2023-10-09T21:46:52.908Z,30.13
2023-10-09T21:49:23.770Z,30.05
2023-10-09T21:52:14.825Z,30.05
2023-10-09T21:54:45.568Z,29.86
2023-10-09T21:57:17.123Z,30.12
2023-10-09T21:59:48.923Z,30.09
2023-10-09T22:02:20.644Z,30.12
2023-10-09T22:04:51.512Z,30.05
2023-10-09T22:07:32.361Z,30.21
2023-10-09T22:10:03.794Z,30.26
2023-10-09T22:12:34.796Z,30.38
2023-10-09T22:15:07.920Z,30.47
2023-10-09T22:17:45.870Z,30.49
2023-10-09T22:20:21.348Z,30.59
2023-10-09T22:22:58.589Z,30.63
2023-10-09T22:25:32.409Z,30.59
2023-10-09T22:28:04.508Z,30.72
2023-10-09T22:30:37.717Z,30.42
2023-10-09T22:33:14.660Z,30.77
2023-10-09T22:35:48.264Z,30.82
2023-10-09T22:38:22.963Z,30.87
2023-10-09T22:40:53.914Z,30.87
2023-10-09T22:43:26.117Z,30.67
2023-10-09T22:45:58.984Z,30.92
2023-10-09T22:48:29.983Z,30.98
2023-10-09T22:51:23.290Z,30.78
2023-10-09T22:53:54.239Z,31.03
2023-10-09T22:56:25.568Z,31.04
2023-10-09T22:58:57.478Z,31.05
2023-10-09T23:01:30.718Z,31.01
2023-10-09T23:04:16.531Z,30.82
2023-10-09T23:06:47.274Z,30.77
2023-10-09T23:09:18.749Z,30.91
2023-10-09T23:11:56.365Z,30.90
2023-10-09T23:14:28.947Z,30.88
2023-10-09T23:17:00.771Z,30.81
2023-10-09T23:19:34.938Z,30.92
2023-10-09T23:22:22.783Z,30.93
2023-10-09T23:24:53.726Z,30.91
2023-10-09T23:27:45.071Z,30.87
2023-10-09T23:30:24.636Z,30.95
2023-10-09T23:33:09.264Z,30.60
2023-10-09T23:35:57.407Z,30.81
2023-10-09T23:38:35.689Z,30.98
2023-10-09T23:41:12.478Z,30.98
2023-10-09T23:43:48.522Z,30.96
2023-10-09T23:46:19.375Z,31.06
2023-10-09T23:48:54.894Z,31.10
2023-10-09T23:51:29.152Z,31.12
2023-10-09T23:54:12.314Z,31.12
2023-10-09T23:57:01.659Z,31.08
2023-10-09T23:59:41.168Z,31.13
